Time;durP1;ratioP1;P1;durP2;ratioP2;P2;SDS_P1;SDS_P2;PMS_P1;PMS_P2;Temp;Humidity;BMP_temperature;BMP_pressure;BME280_temperature;BME280_humidity;BME280_pressure;Samples;Min_cycle;Max_cycle;Signal;HPM_P1;HPM_P2
2021/09/28 00:01:42;;;;;;;;;;;17.20;66.80;;;;;;4984111;28;95995;-49
2021/09/28 00:04:13;;;;;;;;;;;17.30;66.80;;;;;;4989034;28;95607;-50
2021/09/28 00:06:44;;;;;;;;;;;17.40;66.90;;;;;;5019049;27;98394;-47
2021/09/28 00:09:16;;;;;;;;;;;17.50;66.80;;;;;;4988052;28;95910;-51
2021/09/28 00:11:50;;;;;;;;;;;17.50;66.80;;;;;;4980134;28;96110;-46
2021/09/28 00:14:21;;;;;;;;;;;17.60;66.70;;;;;;4989874;28;96868;-47
2021/09/28 00:16:52;;;;;;;;;;;17.70;66.50;;;;;;4982482;28;96425;-49
2021/09/28 00:19:22;;;;;;;;;;;17.80;66.50;;;;;;4988934;28;95988;-50
2021/09/28 00:21:53;;;;;;;;;;;17.90;66.40;;;;;;4990068;28;95681;-49
2021/09/28 00:24:24;;;;;;;;;;;17.90;66.40;;;;;;4988934;28;95923;-49
2021/09/28 00:26:54;;;;;;;;;;;18.00;66.30;;;;;;4989664;28;95249;-49
2021/09/28 00:29:24;;;;;;;;;;;18.10;66.20;;;;;;4989445;28;95884;-48
2021/09/28 00:31:53;;;;;;;;;;;18.10;66.20;;;;;;4983624;28;100049;-48
2021/09/28 00:34:23;;;;;;;;;;;18.20;66.20;;;;;;4988185;28;97385;-48
2021/09/28 00:36:52;;;;;;;;;;;18.20;66.20;;;;;;4989680;28;95813;-48
2021/09/28 00:39:21;;;;;;;;;;;18.30;66.20;;;;;;4989459;28;95513;-48
2021/09/28 00:41:51;;;;;;;;;;;18.30;66.10;;;;;;4989999;28;95724;-47
2021/09/28 00:44:49;;;;;;;;;;;18.40;66.20;;;;;;4984208;28;96233;-49
2021/09/28 00:47:20;;;;;;;;;;;18.40;66.20;;;;;;4972218;28;96231;-48
2021/09/28 00:49:50;;;;;;;;;;;18.50;66.30;;;;;;4987629;28;95914;-51
2021/09/28 00:52:21;;;;;;;;;;;18.60;66.20;;;;;;4988252;28;98813;-49
2021/09/28 00:54:51;;;;;;;;;;;18.70;66.10;;;;;;4986445;28;96617;-51
2021/09/28 00:57:22;;;;;;;;;;;18.70;65.40;;;;;;4989438;28;95674;-53
2021/09/28 00:59:54;;;;;;;;;;;18.70;65.00;;;;;;4989322;28;95696;-48
2021/09/28 01:02:25;;;;;;;;;;;18.70;64.90;;;;;;4982728;28;95554;-48
2021/09/28 01:04:55;;;;;;;;;;;18.70;65.10;;;;;;4988927;28;95863;-49
2021/09/28 01:07:25;;;;;;;;;;;18.70;65.10;;;;;;4986980;28;95969;-51
2021/09/28 01:09:56;;;;;;;;;;;18.70;64.90;;;;;;4984458;28;96145;-50
2021/09/28 01:12:26;;;;;;;;;;;18.70;64.80;;;;;;4982036;28;95407;-48
2021/09/28 01:14:56;;;;;;;;;;;18.70;64.60;;;;;;4988283;28;96417;-53
2021/09/28 01:17:28;;;;;;;;;;;18.70;64.50;;;;;;4984491;28;98456;-51
2021/09/28 01:19:58;;;;;;;;;;;18.70;65.10;;;;;;4985543;28;96254;-48
2021/09/28 01:22:29;;;;;;;;;;;18.80;65.10;;;;;;4986600;28;96015;-52
2021/09/28 01:24:59;;;;;;;;;;;18.80;65.20;;;;;;4987461;28;95825;-53
2021/09/28 01:27:35;;;;;;;;;;;18.80;65.20;;;;;;4988219;28;95327;-49
2021/09/28 01:30:07;;;;;;;;;;;18.80;64.90;;;;;;4989273;28;96033;-52
2021/09/28 01:32:37;;;;;;;;;;;18.90;64.90;;;;;;4983868;28;97584;-54
2021/09/28 01:35:07;;;;;;;;;;;19.00;63.90;;;;;;4988473;28;95859;-53
2021/09/28 01:37:37;;;;;;;;;;;19.00;58.60;;;;;;4987649;28;96055;-51
2021/09/28 01:40:07;;;;;;;;;;;19.00;57.70;;;;;;4987462;28;95828;-51
2021/09/28 01:42:38;;;;;;;;;;;19.10;59.00;;;;;;4986077;28;95386;-55
2021/09/28 01:45:08;;;;;;;;;;;19.10;58.30;;;;;;4983856;28;95879;-52
2021/09/28 01:47:38;;;;;;;;;;;19.20;60.00;;;;;;4985909;28;96058;-52
2021/09/28 01:50:08;;;;;;;;;;;19.30;53.90;;;;;;4988393;28;96216;-51
2021/09/28 01:52:39;;;;;;;;;;;19.30;57.60;;;;;;4987271;28;96158;-51
2021/09/28 01:55:09;;;;;;;;;;;19.40;59.20;;;;;;5018818;27;95847;-54
2021/09/28 01:57:40;;;;;;;;;;;19.50;58.70;;;;;;4982933;28;96605;-54
2021/09/28 02:00:11;;;;;;;;;;;19.60;55.80;;;;;;4985786;28;95304;-52
2021/09/28 02:02:44;;;;;;;;;;;19.60;57.40;;;;;;4985559;28;97325;-54
2021/09/28 02:05:14;;;;;;;;;;;19.80;58.20;;;;;;4983819;28;98636;-50
2021/09/28 02:07:44;;;;;;;;;;;19.80;51.20;;;;;;4986090;28;95715;-52
2021/09/28 02:10:15;;;;;;;;;;;19.90;55.00;;;;;;4975575;28;96197;-55
2021/09/28 02:12:46;;;;;;;;;;;19.90;54.60;;;;;;4979647;28;95866;-54
2021/09/28 02:15:17;;;;;;;;;;;20.00;55.00;;;;;;4983275;28;96516;-53
2021/09/28 02:17:47;;;;;;;;;;;20.10;54.10;;;;;;4986166;28;96022;-52
2021/09/28 02:20:18;;;;;;;;;;;20.10;52.00;;;;;;4984978;28;95362;-54
2021/09/28 02:22:48;;;;;;;;;;;20.20;53.70;;;;;;4986683;28;96140;-48
2021/09/28 02:25:23;;;;;;;;;;;20.30;52.60;;;;;;4984846;28;95937;-55
2021/09/28 02:27:53;;;;;;;;;;;20.40;54.20;;;;;;4986580;28;95498;-54
2021/09/28 02:30:23;;;;;;;;;;;20.40;49.80;;;;;;4980517;28;95754;-53
2021/09/28 02:32:52;;;;;;;;;;;20.50;53.20;;;;;;4986067;28;97947;-54
2021/09/28 02:35:31;;;;;;;;;;;20.50;50.30;;;;;;4985113;28;95814;-50
2021/09/28 02:38:03;;;;;;;;;;;20.40;49.10;;;;;;4984957;28;96145;-48
2021/09/28 02:40:33;;;;;;;;;;;20.50;51.60;;;;;;4985557;28;95470;-55
2021/09/28 02:43:04;;;;;;;;;;;20.60;50.20;;;;;;4986166;28;96580;-52
2021/09/28 02:45:35;;;;;;;;;;;20.70;53.50;;;;;;4979571;28;95902;-56
2021/09/28 02:48:04;;;;;;;;;;;20.80;50.90;;;;;;4982660;28;95311;-47
2021/09/28 02:50:34;;;;;;;;;;;20.80;51.80;;;;;;4984908;28;96796;-56
2021/09/28 02:53:05;;;;;;;;;;;20.90;53.10;;;;;;4984336;28;96804;-54
2021/09/28 02:55:35;;;;;;;;;;;20.90;52.00;;;;;;4985375;28;96380;-47
2021/09/28 02:58:06;;;;;;;;;;;20.80;50.50;;;;;;4988071;28;95424;-54
2021/09/28 03:00:37;;;;;;;;;;;20.70;52.10;;;;;;4983849;28;95388;-55
2021/09/28 03:03:08;;;;;;;;;;;20.80;50.10;;;;;;4988561;28;95829;-45
2021/09/28 03:05:39;;;;;;;;;;;20.80;51.80;;;;;;4986861;28;96533;-45
2021/09/28 03:08:10;;;;;;;;;;;20.80;54.10;;;;;;4987503;28;95831;-51
2021/09/28 03:10:40;;;;;;;;;;;20.70;56.00;;;;;;4981669;28;96721;-47
2021/09/28 03:13:12;;;;;;;;;;;20.60;57.30;;;;;;4984589;28;96189;-45
2021/09/28 03:15:42;;;;;;;;;;;20.50;58.00;;;;;;4983627;28;97573;-45
2021/09/28 03:18:13;;;;;;;;;;;20.40;58.70;;;;;;4990018;28;98121;-45
2021/09/28 03:20:43;;;;;;;;;;;20.30;59.20;;;;;;5019159;27;95441;-46
2021/09/28 03:23:14;;;;;;;;;;;20.30;59.50;;;;;;4988557;28;95754;-46
2021/09/28 03:25:45;;;;;;;;;;;20.30;60.00;;;;;;4987730;28;98066;-46
2021/09/28 03:28:16;;;;;;;;;;;20.30;60.40;;;;;;4988027;28;95797;-46
2021/09/28 03:30:47;;;;;;;;;;;20.30;60.60;;;;;;4983875;28;96201;-46
2021/09/28 03:33:16;;;;;;;;;;;20.30;60.90;;;;;;4988649;28;95846;-45
2021/09/28 03:35:45;;;;;;;;;;;20.30;61.10;;;;;;4987095;28;96443;-45
2021/09/28 03:38:15;;;;;;;;;;;20.20;61.30;;;;;;4985199;28;96398;-46
2021/09/28 03:40:46;;;;;;;;;;;20.20;61.60;;;;;;4988045;28;95749;-46
2021/09/28 03:43:17;;;;;;;;;;;20.20;61.80;;;;;;4986485;28;96456;-47
2021/09/28 03:45:49;;;;;;;;;;;20.20;61.90;;;;;;4981933;28;96813;-46
2021/09/28 03:48:20;;;;;;;;;;;20.10;62.10;;;;;;4987035;28;95945;-46
2021/09/28 03:50:51;;;;;;;;;;;20.10;62.20;;;;;;4988088;28;96092;-46
2021/09/28 03:53:20;;;;;;;;;;;20.10;62.30;;;;;;4986114;28;95988;-47
2021/09/28 03:55:51;;;;;;;;;;;20.10;62.40;;;;;;4986805;28;96405;-49
2021/09/28 03:58:22;;;;;;;;;;;20.10;62.60;;;;;;4987050;28;95369;-45
2021/09/28 04:00:53;;;;;;;;;;;20.10;62.70;;;;;;4983447;28;98224;-48
2021/09/28 04:03:23;;;;;;;;;;;20.10;62.90;;;;;;4987600;28;95693;-45
2021/09/28 04:05:53;;;;;;;;;;;20.20;62.50;;;;;;4987133;28;95913;-47
2021/09/28 04:08:25;;;;;;;;;;;20.30;62.50;;;;;;4986754;28;98565;-53
2021/09/28 04:10:55;;;;;;;;;;;20.40;62.20;;;;;;4977195;28;95905;-49
2021/09/28 04:13:26;;;;;;;;;;;20.40;62.10;;;;;;4984507;28;95991;-49
2021/09/28 04:15:57;;;;;;;;;;;20.50;62.00;;;;;;4982566;28;96649;-47
2021/09/28 04:18:28;;;;;;;;;;;20.50;61.90;;;;;;4987445;28;96162;-49
2021/09/28 04:20:58;;;;;;;;;;;20.60;61.90;;;;;;4988267;28;95874;-46
2021/09/28 04:23:29;;;;;;;;;;;20.60;61.90;;;;;;4988527;28;96004;-50
2021/09/28 04:26:00;;;;;;;;;;;20.70;61.80;;;;;;4986492;28;96574;-48
2021/09/28 04:28:30;;;;;;;;;;;20.70;61.80;;;;;;4985589;28;96057;-48
2021/09/28 04:31:02;;;;;;;;;;;20.80;61.80;;;;;;4977275;28;95437;-46
2021/09/28 04:33:32;;;;;;;;;;;20.80;61.70;;;;;;4968135;28;95855;-47
2021/09/28 04:36:03;;;;;;;;;;;20.80;61.70;;;;;;4965398;28;96567;-46
2021/09/28 04:38:33;;;;;;;;;;;20.90;61.70;;;;;;4996438;28;96046;-48
2021/09/28 04:41:03;;;;;;;;;;;21.00;61.60;;;;;;4966657;28;95751;-49
2021/09/28 04:43:34;;;;;;;;;;;21.00;61.40;;;;;;4967173;28;96229;-46
2021/09/28 04:46:05;;;;;;;;;;;21.10;61.30;;;;;;4971142;28;96469;-48
2021/09/28 04:48:35;;;;;;;;;;;21.20;61.10;;;;;;4967521;28;95775;-50
2021/09/28 04:51:06;;;;;;;;;;;21.20;61.00;;;;;;4966516;28;95893;-47
2021/09/28 04:53:36;;;;;;;;;;;21.30;61.00;;;;;;4965168;28;96677;-47
2021/09/28 04:56:06;;;;;;;;;;;21.30;61.00;;;;;;4964442;28;96499;-48
2021/09/28 04:58:37;;;;;;;;;;;21.30;61.10;;;;;;4965342;28;96499;-45
2021/09/28 05:01:07;;;;;;;;;;;21.20;61.20;;;;;;4973462;28;96522;-46
2021/09/28 05:03:37;;;;;;;;;;;21.20;61.20;;;;;;4966021;28;95760;-47
2021/09/28 05:06:07;;;;;;;;;;;21.20;61.20;;;;;;4966596;28;95891;-48
2021/09/28 05:08:39;;;;;;;;;;;21.20;61.20;;;;;;4966206;28;95243;-50
2021/09/28 05:11:11;;;;;;;;;;;21.20;61.30;;;;;;4951847;28;95410;-46
2021/09/28 05:13:42;;;;;;;;;;;21.20;61.30;;;;;;4966302;28;98361;-54
2021/09/28 05:16:12;;;;;;;;;;;21.10;61.20;;;;;;4961464;28;95901;-47
2021/09/28 05:18:43;;;;;;;;;;;21.20;61.30;;;;;;4964787;28;96042;-47
2021/09/28 05:21:13;;;;;;;;;;;21.20;61.30;;;;;;4965709;28;95275;-46
2021/09/28 05:23:47;;;;;;;;;;;21.20;61.40;;;;;;4967990;28;95992;-47
2021/09/28 05:26:16;;;;;;;;;;;21.10;61.20;;;;;;4965873;28;97296;-47
2021/09/28 05:28:45;;;;;;;;;;;21.10;61.30;;;;;;4967065;28;95988;-48
2021/09/28 05:31:16;;;;;;;;;;;21.10;61.30;;;;;;4991733;28;95791;-46
2021/09/28 05:33:45;;;;;;;;;;;21.10;61.40;;;;;;4965560;28;97036;-46
2021/09/28 05:36:16;;;;;;;;;;;21.20;61.30;;;;;;4965044;28;96517;-47
2021/09/28 05:38:46;;;;;;;;;;;21.20;61.30;;;;;;4966356;28;96582;-48
2021/09/28 05:41:17;;;;;;;;;;;21.20;61.30;;;;;;4966428;28;97276;-47
2021/09/28 05:43:47;;;;;;;;;;;21.30;61.30;;;;;;4966834;28;96425;-48
2021/09/28 05:46:18;;;;;;;;;;;21.30;61.30;;;;;;4960988;28;98220;-47
2021/09/28 05:48:48;;;;;;;;;;;21.30;61.20;;;;;;4966345;28;95949;-47
2021/09/28 05:51:21;;;;;;;;;;;21.40;61.20;;;;;;4964315;28;95332;-47
2021/09/28 05:53:51;;;;;;;;;;;21.30;61.30;;;;;;4966325;28;98609;-48
2021/09/28 05:56:20;;;;;;;;;;;21.40;61.20;;;;;;4965276;28;96407;-46
2021/09/28 05:58:51;;;;;;;;;;;21.40;61.30;;;;;;4965966;28;96468;-46
2021/09/28 06:01:22;;;;;;;;;;;21.40;61.30;;;;;;4961860;28;95879;-46
2021/09/28 06:03:52;;;;;;;;;;;21.40;61.20;;;;;;4965068;28;95943;-49
2021/09/28 06:06:26;;;;;;;;;;;21.40;61.20;;;;;;4962079;28;96393;-48
2021/09/28 06:08:57;;;;;;;;;;;21.40;61.20;;;;;;4962045;28;95992;-46
2021/09/28 06:11:28;;;;;;;;;;;21.50;61.20;;;;;;4955478;28;95414;-46
2021/09/28 06:13:58;;;;;;;;;;;21.50;61.10;;;;;;4963220;28;97285;-46
2021/09/28 06:16:29;;;;;;;;;;;21.60;61.00;;;;;;4962085;28;96384;-47
2021/09/28 06:19:00;;;;;;;;;;;21.70;60.80;;;;;;4964436;28;95823;-46
2021/09/28 06:21:32;;;;;;;;;;;21.80;60.50;;;;;;4965578;28;95766;-47
2021/09/28 06:24:02;;;;;;;;;;;21.80;60.40;;;;;;4964205;28;97776;-48
2021/09/28 06:26:32;;;;;;;;;;;21.80;60.40;;;;;;4965033;28;97277;-47
2021/09/28 06:29:01;;;;;;;;;;;21.80;60.40;;;;;;4965249;28;95913;-57
2021/09/28 06:31:30;;;;;;;;;;;21.80;60.40;;;;;;4959864;28;95433;-49
2021/09/28 06:34:06;;;;;;;;;;;21.80;60.50;;;;;;4965501;28;96360;-47
2021/09/28 06:36:38;;;;;;;;;;;21.80;60.40;;;;;;4966070;28;95964;-45
2021/09/28 06:39:09;;;;;;;;;;;21.70;60.50;;;;;;4964443;28;95802;-48
2021/09/28 06:41:41;;;;;;;;;;;21.70;60.50;;;;;;4964598;28;95822;-47
2021/09/28 06:44:12;;;;;;;;;;;21.70;60.60;;;;;;4965740;28;96163;-49
2021/09/28 06:46:42;;;;;;;;;;;21.70;60.50;;;;;;4960420;28;96606;-47
2021/09/28 06:49:13;;;;;;;;;;;21.70;60.60;;;;;;4965079;28;95740;-46
2021/09/28 06:51:44;;;;;;;;;;;21.70;60.60;;;;;;4965760;28;95801;-46
2021/09/28 06:54:14;;;;;;;;;;;21.70;60.60;;;;;;4964841;28;96160;-48
2021/09/28 06:56:46;;;;;;;;;;;21.70;60.60;;;;;;4964193;28;96511;-47
2021/09/28 06:59:18;;;;;;;;;;;21.70;60.70;;;;;;4962722;28;96027;-46
2021/09/28 07:01:49;;;;;;;;;;;21.70;60.60;;;;;;4960889;28;95942;-46
2021/09/28 07:04:20;;;;;;;;;;;21.60;60.50;;;;;;4964786;28;97656;-47
2021/09/28 07:06:51;;;;;;;;;;;21.60;60.60;;;;;;4964601;28;96703;-46
2021/09/28 07:09:22;;;;;;;;;;;21.70;60.70;;;;;;4961678;28;96438;-54
2021/09/28 07:11:53;;;;;;;;;;;21.70;60.70;;;;;;4957036;28;96021;-47
2021/09/28 07:14:23;;;;;;;;;;;21.70;60.60;;;;;;4964190;28;98708;-50
2021/09/28 07:16:57;;;;;;;;;;;21.60;60.70;;;;;;4959477;28;96242;-46
2021/09/28 07:19:27;;;;;;;;;;;21.70;60.60;;;;;;4962318;28;95764;-48
2021/09/28 07:21:58;;;;;;;;;;;21.70;60.60;;;;;;4962656;28;96646;-46
2021/09/28 07:24:30;;;;;;;;;;;21.60;60.50;;;;;;4963239;28;96269;-47
2021/09/28 07:27:00;;;;;;;;;;;21.70;60.50;;;;;;4995648;28;96051;-48
2021/09/28 07:29:31;;;;;;;;;;;21.70;60.50;;;;;;4962539;28;98406;-48
2021/09/28 07:32:04;;;;;;;;;;;21.60;60.50;;;;;;4957661;28;96746;-47
2021/09/28 07:34:34;;;;;;;;;;;21.60;60.40;;;;;;4963655;28;96570;-49
2021/09/28 07:37:03;;;;;;;;;;;21.70;60.50;;;;;;4964611;28;96352;-46
2021/09/28 07:39:51;;;;;;;;;;;21.60;60.30;;;;;;4965173;28;96666;-45
2021/09/28 07:42:24;;;;;;;;;;;21.70;60.50;;;;;;4967147;28;96318;-47
2021/09/28 07:44:56;;;;;;;;;;;21.60;60.30;;;;;;4968865;28;95447;-48
2021/09/28 07:47:27;;;;;;;;;;;21.70;60.30;;;;;;4962056;28;95883;-48
2021/09/28 07:49:59;;;;;;;;;;;21.60;60.30;;;;;;4966384;28;96249;-47
2021/09/28 07:52:31;;;;;;;;;;;21.60;60.20;;;;;;4966150;28;97019;-48
2021/09/28 07:55:04;;;;;;;;;;;21.60;60.40;;;;;;4968985;28;96515;-48
2021/09/28 07:57:35;;;;;;;;;;;21.60;60.40;;;;;;4974008;28;98256;-47
2021/09/28 08:00:09;;;;;;;;;;;21.60;60.40;;;;;;4968245;28;95843;-51
2021/09/28 08:02:42;;;;;;;;;;;21.60;60.40;;;;;;4966821;28;96311;-47
2021/09/28 08:05:13;;;;;;;;;;;21.60;60.30;;;;;;4966272;28;95971;-47
2021/09/28 08:07:45;;;;;;;;;;;21.60;60.60;;;;;;4964756;28;97537;-47
2021/09/28 08:10:17;;;;;;;;;;;21.70;60.60;;;;;;4963668;28;95868;-47
2021/09/28 08:12:51;;;;;;;;;;;21.60;60.40;;;;;;4962916;28;96383;-48
2021/09/28 08:15:23;;;;;;;;;;;21.60;60.50;;;;;;4964700;28;96129;-47
2021/09/28 08:17:54;;;;;;;;;;;21.60;60.70;;;;;;4984862;28;103838;-47
2021/09/28 08:20:24;;;;;;;;;;;21.50;60.80;;;;;;4984189;28;95422;-46
2021/09/28 08:22:57;;;;;;;;;;;21.50;60.80;;;;;;4981600;28;95755;-50
2021/09/28 08:25:36;;;;;;;;;;;21.50;60.90;;;;;;4985835;28;96062;-47
2021/09/28 08:30:57;;;;;;;;;;;21.40;61.10;;;;;;4982566;28;96023;-48
2021/09/28 08:33:29;;;;;;;;;;;21.30;61.20;;;;;;4986957;28;95365;-48
2021/09/28 08:36:00;;;;;;;;;;;21.30;61.20;;;;;;4988608;28;95774;-47
2021/09/28 08:38:30;;;;;;;;;;;21.30;61.30;;;;;;4983731;28;96535;-47
2021/09/28 08:41:02;;;;;;;;;;;21.30;61.30;;;;;;4983591;28;96093;-46
2021/09/28 08:43:34;;;;;;;;;;;21.20;61.40;;;;;;4984512;28;96987;-47
2021/09/28 08:46:05;;;;;;;;;;;21.20;61.40;;;;;;4983643;28;95715;-51
2021/09/28 08:48:36;;;;;;;;;;;21.20;61.60;;;;;;4986549;28;95754;-47
2021/09/28 08:51:12;;;;;;;;;;;21.20;61.70;;;;;;4986374;28;96189;-48
2021/09/28 08:53:45;;;;;;;;;;;21.10;61.70;;;;;;4983943;28;97301;-50
2021/09/28 08:56:14;;;;;;;;;;;21.10;61.80;;;;;;4985317;28;95906;-47
2021/09/28 08:58:58;;;;;;;;;;;21.10;61.80;;;;;;4986540;28;96163;-55
2021/09/28 09:01:30;;;;;;;;;;;21.10;61.90;;;;;;4982697;28;95976;-46
2021/09/28 09:04:18;;;;;;;;;;;21.00;62.60;;;;;;4985282;28;96674;-48
2021/09/28 09:06:48;;;;;;;;;;;21.00;62.10;;;;;;4987355;28;96898;-50
2021/09/28 09:09:50;;;;;;;;;;;20.90;62.90;;;;;;4981540;28;96038;-51
2021/09/28 09:12:40;;;;;;;;;;;20.90;62.30;;;;;;4975993;28;95893;-48
2021/09/28 09:15:31;;;;;;;;;;;20.90;62.30;;;;;;5014736;28;95450;-48
2021/09/28 09:18:04;;;;;;;;;;;20.90;62.40;;;;;;4983279;28;98225;-49
2021/09/28 09:20:42;;;;;;;;;;;20.80;62.40;;;;;;4982963;28;95818;-47
2021/09/28 09:23:29;;;;;;;;;;;20.80;62.60;;;;;;4983695;28;95739;-52
2021/09/28 09:26:18;;;;;;;;;;;20.80;62.50;;;;;;4984556;28;96014;-47
2021/09/28 09:28:52;;;;;;;;;;;20.70;62.50;;;;;;4985641;28;95634;-48
2021/09/28 09:31:34;;;;;;;;;;;20.70;62.60;;;;;;4982912;28;98898;-55
2021/09/28 09:34:19;;;;;;;;;;;20.60;62.50;;;;;;4986145;28;95867;-47
2021/09/28 09:37:02;;;;;;;;;;;20.60;62.60;;;;;;4986316;28;96461;-55
2021/09/28 09:39:47;;;;;;;;;;;20.60;62.60;;;;;;4987300;28;95978;-53
2021/09/28 09:42:19;;;;;;;;;;;20.60;62.60;;;;;;4986353;28;96476;-48
2021/09/28 09:44:50;;;;;;;;;;;20.50;62.70;;;;;;4984646;28;95406;-48
2021/09/28 09:47:26;;;;;;;;;;;20.50;62.90;;;;;;4981696;28;95959;-47
2021/09/28 09:50:14;;;;;;;;;;;20.50;63.10;;;;;;4987387;28;95372;-48
2021/09/28 09:52:58;;;;;;;;;;;20.40;63.20;;;;;;4985411;28;96734;-50
2021/09/28 09:55:33;;;;;;;;;;;20.40;63.20;;;;;;4985506;28;95712;-49
2021/09/28 09:58:06;;;;;;;;;;;20.40;63.30;;;;;;5015788;27;95952;-48
2021/09/28 10:00:40;;;;;;;;;;;20.40;63.30;;;;;;4980904;28;96390;-48
2021/09/28 10:03:10;;;;;;;;;;;20.30;63.30;;;;;;4984505;28;95793;-53
2021/09/28 10:05:41;;;;;;;;;;;20.30;63.30;;;;;;4985311;28;95905;-47
2021/09/28 10:08:13;;;;;;;;;;;20.30;63.30;;;;;;4985467;28;95365;-54
2021/09/28 10:10:55;;;;;;;;;;;20.30;63.80;;;;;;4980216;28;95325;-48
2021/09/28 10:13:46;;;;;;;;;;;20.20;63.30;;;;;;4981509;28;95875;-47
2021/09/28 10:16:30;;;;;;;;;;;20.20;63.40;;;;;;4980818;28;96739;-52
2021/09/28 10:19:02;;;;;;;;;;;20.20;63.40;;;;;;4984061;28;96565;-52
2021/09/28 10:21:38;;;;;;;;;;;20.20;63.50;;;;;;4984830;28;95673;-54
2021/09/28 10:24:19;;;;;;;;;;;20.10;63.50;;;;;;4984525;28;96485;-46
2021/09/28 10:27:01;;;;;;;;;;;20.10;63.40;;;;;;4982443;28;96246;-56
2021/09/28 10:29:37;;;;;;;;;;;20.10;63.50;;;;;;4983084;28;95829;-47
2021/09/28 10:32:24;;;;;;;;;;;20.10;63.80;;;;;;4967119;28;95739;-57
2021/09/28 10:35:07;;;;;;;;;;;20.00;63.60;;;;;;4963569;28;95874;-47
2021/09/28 10:37:43;;;;;;;;;;;20.00;63.90;;;;;;4964417;28;95886;-46
2021/09/28 10:40:19;;;;;;;;;;;19.90;64.00;;;;;;4957936;28;95666;-47
2021/09/28 10:42:52;;;;;;;;;;;19.90;64.10;;;;;;4957293;28;95614;-47
2021/09/28 10:45:28;;;;;;;;;;;19.80;64.20;;;;;;4959329;28;98024;-53
2021/09/28 10:48:00;;;;;;;;;;;19.80;64.30;;;;;;4973216;28;95743;-55
2021/09/28 10:50:39;;;;;;;;;;;19.70;64.50;;;;;;4963359;28;96062;-56
2021/09/28 10:53:23;;;;;;;;;;;19.70;64.50;;;;;;4963796;28;97539;-48
2021/09/28 10:56:04;;;;;;;;;;;19.60;64.60;;;;;;4957113;28;95917;-56
2021/09/28 10:58:54;;;;;;;;;;;19.60;64.80;;;;;;4956757;28;95334;-47
2021/09/28 11:01:30;;;;;;;;;;;19.60;64.80;;;;;;4988826;28;95954;-56
2021/09/28 11:04:11;;;;;;;;;;;19.60;64.80;;;;;;4988648;28;97985;-59
2021/09/28 11:06:42;;;;;;;;;;;19.50;64.90;;;;;;4982040;28;96121;-56
2021/09/28 11:09:13;;;;;;;;;;;19.50;65.10;;;;;;4983574;28;96068;-54
2021/09/28 11:11:49;;;;;;;;;;;19.50;65.10;;;;;;4980089;28;95883;-56
2021/09/28 11:14:19;;;;;;;;;;;19.40;65.00;;;;;;4989731;28;97998;-53
2021/09/28 11:16:58;;;;;;;;;;;19.40;65.20;;;;;;4986323;28;96530;-55
2021/09/28 11:19:40;;;;;;;;;;;19.30;65.20;;;;;;4992213;28;95786;-55
2021/09/28 11:22:16;;;;;;;;;;;19.30;65.30;;;;;;5019700;28;97075;-49
2021/09/28 11:24:46;;;;;;;;;;;19.30;65.40;;;;;;4991994;28;95765;-47
2021/09/28 11:27:16;;;;;;;;;;;19.20;65.50;;;;;;4992267;28;96018;-57
2021/09/28 11:29:46;;;;;;;;;;;19.20;65.50;;;;;;4992597;28;95824;-50
2021/09/28 11:32:15;;;;;;;;;;;19.20;65.60;;;;;;4989395;28;96121;-57
2021/09/28 11:34:46;;;;;;;;;;;19.20;65.70;;;;;;4987541;28;95589;-53
2021/09/28 11:37:21;;;;;;;;;;;19.10;65.60;;;;;;4993322;28;96479;-57
2021/09/28 11:39:51;;;;;;;;;;;19.10;65.70;;;;;;4992117;28;95351;-57
2021/09/28 11:42:31;;;;;;;;;;;19.10;65.70;;;;;;4991471;28;95932;-47
2021/09/28 11:45:01;;;;;;;;;;;19.00;65.80;;;;;;4992839;28;97957;-56
2021/09/28 11:47:40;;;;;;;;;;;19.00;65.90;;;;;;4988139;28;95828;-53
2021/09/28 11:50:10;;;;;;;;;;;19.00;66.10;;;;;;4992420;28;95547;-47
2021/09/28 11:52:41;;;;;;;;;;;18.90;66.20;;;;;;4992282;28;95914;-47
2021/09/28 11:55:20;;;;;;;;;;;18.90;66.20;;;;;;4992186;28;95724;-56
2021/09/28 11:57:50;;;;;;;;;;;18.80;66.20;;;;;;4975210;28;95961;-56
2021/09/28 12:00:21;;;;;;;;;;;18.80;66.20;;;;;;4985194;28;95967;-52
2021/09/28 12:03:06;;;;;;;;;;;18.80;66.30;;;;;;4988780;28;95724;-56
2021/09/28 12:06:03;;;;;;;;;;;18.70;66.30;;;;;;4979612;28;95788;-47
2021/09/28 12:08:34;;;;;;;;;;;18.70;66.40;;;;;;4978262;28;96331;-57
2021/09/28 12:11:05;;;;;;;;;;;18.70;66.50;;;;;;4979251;28;96262;-49
2021/09/28 12:13:49;;;;;;;;;;;18.60;66.50;;;;;;4984183;28;95733;-51
2021/09/28 12:16:22;;;;;;;;;;;18.60;66.70;;;;;;4985533;28;96071;-48
2021/09/28 12:19:05;;;;;;;;;;;18.60;66.90;;;;;;4978632;28;96105;-48
2021/09/28 12:21:35;;;;;;;;;;;18.50;66.80;;;;;;4985929;28;95402;-48
2021/09/28 12:24:18;;;;;;;;;;;18.50;66.90;;;;;;4973745;28;100158;-53
2021/09/28 12:26:51;;;;;;;;;;;18.50;67.00;;;;;;4981149;28;95725;-51
2021/09/28 12:29:21;;;;;;;;;;;18.50;67.20;;;;;;4989300;28;95818;-49
2021/09/28 12:31:51;;;;;;;;;;;18.50;67.10;;;;;;4982652;28;96385;-52
2021/09/28 12:34:25;;;;;;;;;;;18.50;67.10;;;;;;4988410;28;95726;-49
2021/09/28 12:37:02;;;;;;;;;;;18.50;67.10;;;;;;4988858;28;95405;-48
2021/09/28 12:39:32;;;;;;;;;;;18.60;66.90;;;;;;4988589;28;96567;-51
2021/09/28 12:42:06;;;;;;;;;;;18.70;66.80;;;;;;4981447;28;95587;-51
2021/09/28 12:44:38;;;;;;;;;;;18.80;66.40;;;;;;4985276;28;95237;-49
2021/09/28 12:47:29;;;;;;;;;;;18.90;66.30;;;;;;4984501;28;95979;-50
2021/09/28 12:50:16;;;;;;;;;;;19.00;65.70;;;;;;4987421;28;96653;-49
2021/09/28 12:52:46;;;;;;;;;;;19.10;65.10;;;;;;4984002;28;95788;-48
2021/09/28 12:55:16;;;;;;;;;;;19.20;65.00;;;;;;5014575;28;95868;-51
2021/09/28 12:57:47;;;;;;;;;;;19.30;64.80;;;;;;4992581;28;95883;-47
2021/09/28 13:00:18;;;;;;;;;;;19.30;64.40;;;;;;4988471;28;96452;-50
2021/09/28 13:02:49;;;;;;;;;;;19.50;64.30;;;;;;4991840;28;95782;-47
2021/09/28 13:05:23;;;;;;;;;;;19.50;63.90;;;;;;4991443;28;96004;-48
2021/09/28 13:07:54;;;;;;;;;;;19.50;63.60;;;;;;4992742;28;95329;-50
2021/09/28 13:10:25;;;;;;;;;;;19.60;63.40;;;;;;4985138;28;96212;-49
2021/09/28 13:12:55;;;;;;;;;;;19.60;63.10;;;;;;4987403;28;95478;-49
2021/09/28 13:15:26;;;;;;;;;;;19.70;62.90;;;;;;5019335;28;97122;-48
2021/09/28 13:17:57;;;;;;;;;;;19.80;62.70;;;;;;4992997;28;95687;-48
2021/09/28 13:20:26;;;;;;;;;;;19.80;62.60;;;;;;4989581;28;98351;-47
2021/09/28 13:22:56;;;;;;;;;;;19.90;62.20;;;;;;4990635;28;95426;-47
2021/09/28 13:25:29;;;;;;;;;;;19.90;62.20;;;;;;4991584;28;95819;-48
2021/09/28 13:27:59;;;;;;;;;;;20.00;62.10;;;;;;4990920;28;96234;-47
2021/09/28 13:30:28;;;;;;;;;;;20.00;61.80;;;;;;4987578;28;95814;-47
2021/09/28 13:32:57;;;;;;;;;;;20.10;61.70;;;;;;4990352;28;95887;-48
2021/09/28 13:35:29;;;;;;;;;;;20.10;61.50;;;;;;4992225;28;95250;-50
2021/09/28 13:37:59;;;;;;;;;;;20.10;61.60;;;;;;4989344;28;95595;-48
2021/09/28 13:40:29;;;;;;;;;;;20.10;61.80;;;;;;4990328;28;96429;-48
2021/09/28 13:43:00;;;;;;;;;;;20.20;62.10;;;;;;4992285;28;95978;-48
2021/09/28 13:45:37;;;;;;;;;;;20.30;62.20;;;;;;4986238;28;95955;-52
2021/09/28 13:48:11;;;;;;;;;;;20.40;62.00;;;;;;4993055;28;95263;-50
2021/09/28 13:50:42;;;;;;;;;;;20.50;62.00;;;;;;4991963;28;96204;-50
2021/09/28 13:53:14;;;;;;;;;;;20.60;61.90;;;;;;4991834;28;95890;-50
2021/09/28 13:55:43;;;;;;;;;;;20.70;61.90;;;;;;5023001;28;96041;-47
2021/09/28 13:58:14;;;;;;;;;;;20.80;61.80;;;;;;4991831;28;95518;-49
2021/09/28 14:00:47;;;;;;;;;;;20.90;61.80;;;;;;4988326;28;95452;-50
2021/09/28 14:03:18;;;;;;;;;;;21.00;61.60;;;;;;4992680;28;95423;-52
2021/09/28 14:05:48;;;;;;;;;;;21.00;61.60;;;;;;4991686;28;95756;-48
2021/09/28 14:08:20;;;;;;;;;;;21.10;61.60;;;;;;4991212;28;95409;-48
2021/09/28 14:10:50;;;;;;;;;;;21.20;61.60;;;;;;4982526;28;95988;-50
2021/09/28 14:13:20;;;;;;;;;;;21.20;61.50;;;;;;4985163;28;98244;-48
2021/09/28 14:15:51;;;;;;;;;;;21.30;60.10;;;;;;4985978;28;95878;-49
2021/09/28 14:18:22;;;;;;;;;;;21.20;59.60;;;;;;4992703;28;95572;-51
2021/09/28 14:20:52;;;;;;;;;;;21.20;60.60;;;;;;4991575;28;95858;-50
2021/09/28 14:23:22;;;;;;;;;;;21.30;60.60;;;;;;4990762;28;95972;-50
2021/09/28 14:25:52;;;;;;;;;;;21.40;60.60;;;;;;4988981;28;95813;-51
2021/09/28 14:28:22;;;;;;;;;;;21.40;60.50;;;;;;4990008;28;97552;-50
2021/09/28 14:30:52;;;;;;;;;;;21.50;60.40;;;;;;4985572;28;96682;-50
2021/09/28 14:33:25;;;;;;;;;;;21.60;60.40;;;;;;4989904;28;95877;-51
2021/09/28 14:35:55;;;;;;;;;;;21.60;60.40;;;;;;4988650;28;95758;-50
2021/09/28 14:38:25;;;;;;;;;;;21.70;60.30;;;;;;4991836;28;95369;-49
2021/09/28 14:40:55;;;;;;;;;;;21.70;60.30;;;;;;4990822;28;96735;-50
2021/09/28 14:43:26;;;;;;;;;;;21.70;60.30;;;;;;4990018;28;95553;-52
2021/09/28 14:45:57;;;;;;;;;;;21.70;60.40;;;;;;4985330;28;95643;-49
2021/09/28 14:48:28;;;;;;;;;;;21.70;60.50;;;;;;4990926;28;96014;-46
2021/09/28 14:50:58;;;;;;;;;;;21.70;60.50;;;;;;4988997;28;95961;-49